createdAt,value
2019-04-13T00:02:21.283Z,20.10
2019-04-13T00:05:21.645Z,19.20
2019-04-13T00:07:55.854Z,19.87
2019-04-13T00:10:47.417Z,20.33
2019-04-13T00:13:19.380Z,20.40
2019-04-13T00:15:51.329Z,20.80
2019-04-13T00:18:23.315Z,19.47
2019-04-13T00:20:55.399Z,19.50
2019-04-13T00:23:27.505Z,20.23
2019-04-13T00:25:59.450Z,20.23
2019-04-13T00:28:31.409Z,19.33
2019-04-13T00:31:03.384Z,19.87
2019-04-13T00:33:35.336Z,24.27
2019-04-13T00:36:07.288Z,23.47
2019-04-13T00:38:39.386Z,22.83
2019-04-13T00:41:11.352Z,21.20
2019-04-13T00:43:43.318Z,21.13
2019-04-13T00:46:15.272Z,20.00
2019-04-13T00:48:47.225Z,20.17
2019-04-13T00:51:19.157Z,20.07
2019-04-13T00:53:51.114Z,21.33
2019-04-13T00:56:23.053Z,20.90
2019-04-13T00:58:55.062Z,21.77
2019-04-13T01:01:27.023Z,20.63
2019-04-13T01:03:58.985Z,20.70
2019-04-13T01:06:30.936Z,20.73
2019-04-13T01:09:07.298Z,21.17
2019-04-13T01:11:39.241Z,20.67
2019-04-13T01:14:11.210Z,20.13
2019-04-13T01:16:43.156Z,20.97
2019-04-13T01:19:15.120Z,20.20
2019-04-13T01:21:47.046Z,20.20
2019-04-13T01:24:19.000Z,19.27
2019-04-13T01:26:50.937Z,21.00
2019-04-13T01:29:22.906Z,18.97
2019-04-13T01:31:54.852Z,20.40
2019-04-13T01:34:26.805Z,21.23
2019-04-13T01:36:58.785Z,21.03
2019-04-13T01:39:30.751Z,19.73
2019-04-13T01:42:02.759Z,21.10
2019-04-13T01:44:34.776Z,21.10
2019-04-13T01:47:06.668Z,20.47
2019-04-13T01:49:38.643Z,20.83
2019-04-13T01:52:10.583Z,21.10
2019-04-13T01:54:42.527Z,20.53
2019-04-13T01:57:14.463Z,19.73
2019-04-13T01:59:46.440Z,21.07
2019-04-13T02:02:26.763Z,20.13
2019-04-13T02:05:18.382Z,21.83
2019-04-13T02:08:00.607Z,21.00
2019-04-13T02:10:35.685Z,20.03
2019-04-13T02:13:07.616Z,20.13
2019-04-13T02:15:39.577Z,21.60
2019-04-13T02:18:11.536Z,21.50
2019-04-13T02:20:43.516Z,21.73
2019-04-13T02:23:15.446Z,21.60
2019-04-13T02:25:47.412Z,20.90
2019-04-13T02:28:19.352Z,21.10
2019-04-13T02:30:51.310Z,22.07
2019-04-13T02:33:23.247Z,21.90
2019-04-13T02:35:55.238Z,21.40
2019-04-13T02:38:27.195Z,22.00
2019-04-13T02:40:59.369Z,21.87
2019-04-13T02:43:31.309Z,19.80
2019-04-13T02:46:03.288Z,19.53
2019-04-13T02:48:35.204Z,19.73
2019-04-13T02:51:07.159Z,21.97
2019-04-13T02:53:39.125Z,21.37
2019-04-13T02:56:11.126Z,21.63
2019-04-13T02:58:43.050Z,21.33
2019-04-13T03:01:15.029Z,20.10
2019-04-13T03:03:47.352Z,21.13
2019-04-13T03:06:19.328Z,20.60
2019-04-13T03:08:51.256Z,21.70
2019-04-13T03:11:23.232Z,20.97
2019-04-13T03:13:55.181Z,21.57
2019-04-13T03:16:49.642Z,21.20
2019-04-13T03:19:28.344Z,19.90
2019-04-13T03:22:00.290Z,20.60
2019-04-13T03:24:32.262Z,20.33
2019-04-13T03:27:04.223Z,19.87
2019-04-13T03:29:36.170Z,20.67
2019-04-13T03:32:08.143Z,21.53
2019-04-13T03:34:40.073Z,21.77
2019-04-13T03:37:12.063Z,19.97
2019-04-13T03:39:44.022Z,20.80
2019-04-13T03:42:16.015Z,21.17
2019-04-13T03:44:47.949Z,20.30
2019-04-13T03:47:19.892Z,20.80
2019-04-13T03:49:51.857Z,21.73
2019-04-13T03:52:23.792Z,21.27
2019-04-13T03:54:55.755Z,20.87
2019-04-13T03:57:27.737Z,21.97
2019-04-13T03:59:59.689Z,22.20
2019-04-13T04:02:31.634Z,20.83
2019-04-13T04:05:04.384Z,19.63
2019-04-13T04:07:36.852Z,20.60
2019-04-13T04:10:09.023Z,19.70
2019-04-13T04:12:40.964Z,20.90
2019-04-13T04:15:12.956Z,20.57
2019-04-13T04:17:44.891Z,21.90
2019-04-13T04:20:16.858Z,19.03
2019-04-13T04:22:48.792Z,20.37
2019-04-13T04:25:20.734Z,19.77
2019-04-13T04:27:52.693Z,19.97
2019-04-13T04:30:24.704Z,20.13
2019-04-13T04:32:56.637Z,20.53
2019-04-13T04:35:28.614Z,18.83
2019-04-13T04:38:00.614Z,20.97
2019-04-13T04:40:35.155Z,18.80
2019-04-13T04:43:06.428Z,19.50
2019-04-13T04:45:38.374Z,20.03
2019-04-13T04:48:10.319Z,19.63
2019-04-13T04:50:42.288Z,20.30
2019-04-13T04:53:14.230Z,20.00
2019-04-13T04:55:46.201Z,19.80
2019-04-13T04:58:18.141Z,21.10
2019-04-13T05:00:50.110Z,20.83
2019-04-13T05:03:22.058Z,20.53
2019-04-13T05:05:54.018Z,20.17
2019-04-13T05:08:25.962Z,20.57
2019-04-13T05:10:57.919Z,21.10
2019-04-13T05:13:29.883Z,20.43
2019-04-13T05:16:01.829Z,19.93
2019-04-13T05:18:33.766Z,20.93
2019-04-13T05:21:05.768Z,20.23
2019-04-13T05:23:37.730Z,20.13
2019-04-13T05:26:09.693Z,21.67
2019-04-13T05:28:41.643Z,21.93
2019-04-13T05:31:13.604Z,21.20
2019-04-13T05:33:45.577Z,21.00
2019-04-13T05:36:17.547Z,21.47
2019-04-13T05:38:49.507Z,21.33
2019-04-13T05:41:21.568Z,20.30
2019-04-13T05:43:53.501Z,20.90
2019-04-13T05:46:25.467Z,22.33
2019-04-13T05:48:57.411Z,21.43
2019-04-13T05:51:29.443Z,22.53
2019-04-13T05:54:01.389Z,22.27
2019-04-13T05:56:33.373Z,22.67
2019-04-13T05:59:05.320Z,22.07
2019-04-13T06:01:37.310Z,21.63
2019-04-13T06:04:09.249Z,22.90
2019-04-13T06:06:41.338Z,22.17
2019-04-13T06:09:13.325Z,22.53
2019-04-13T06:11:45.615Z,22.47
2019-04-13T06:14:17.670Z,22.27
2019-04-13T06:16:49.628Z,22.37
2019-04-13T06:19:21.599Z,23.43
2019-04-13T06:21:53.547Z,22.00
2019-04-13T06:24:25.517Z,21.07
2019-04-13T06:26:57.463Z,21.97
2019-04-13T06:29:29.455Z,21.93
2019-04-13T06:32:26.700Z,23.37
2019-04-13T06:35:27.089Z,23.70
2019-04-13T06:37:59.121Z,23.87
2019-04-13T06:40:31.085Z,23.47
2019-04-13T06:43:03.067Z,23.30
2019-04-13T06:45:35.116Z,23.47
2019-04-13T06:48:07.088Z,23.43
2019-04-13T06:50:39.059Z,23.27
2019-04-13T06:53:11.039Z,23.53
2019-04-13T06:55:43.041Z,23.93
2019-04-13T06:58:15.792Z,24.60
2019-04-13T07:00:48.625Z,24.43
2019-04-13T07:03:20.683Z,24.50
2019-04-13T07:05:52.666Z,24.53
2019-04-13T07:08:38.119Z,24.23
2019-04-13T07:11:13.905Z,23.73
2019-04-13T07:13:54.697Z,23.63
2019-04-13T07:16:43.041Z,24.20
2019-04-13T07:19:13.258Z,23.10
2019-04-13T07:21:45.259Z,24.23
2019-04-13T07:24:18.640Z,23.23
2019-04-13T07:26:50.879Z,24.10
2019-04-13T07:29:24.420Z,23.63
2019-04-13T07:31:56.518Z,23.50
2019-04-13T07:34:28.520Z,24.30
2019-04-13T07:37:00.557Z,22.90
2019-04-13T07:39:32.598Z,23.67
2019-04-13T07:42:05.461Z,24.57
2019-04-13T07:44:43.227Z,24.57
2019-04-13T07:47:32.383Z,23.57
2019-04-13T07:50:24.337Z,23.73
2019-04-13T07:52:57.465Z,24.00
2019-04-13T07:55:29.508Z,23.37
2019-04-13T07:58:01.512Z,23.00
2019-04-13T08:00:34.821Z,23.97
2019-04-13T08:03:06.795Z,24.37
2019-04-13T08:05:38.808Z,22.90
2019-04-13T08:08:10.764Z,23.40
2019-04-13T08:10:42.758Z,22.77
2019-04-13T08:13:14.756Z,24.17
2019-04-13T08:15:46.740Z,23.73
2019-04-13T08:18:39.325Z,25.27
2019-04-13T08:21:12.262Z,25.27
2019-04-13T08:23:54.147Z,24.80
2019-04-13T08:26:26.113Z,25.80
2019-04-13T08:28:58.155Z,25.30
2019-04-13T08:31:30.158Z,24.83
2019-04-13T08:34:02.123Z,24.83
2019-04-13T08:36:34.157Z,24.03
2019-04-13T08:39:07.364Z,24.70
2019-04-13T08:41:39.393Z,24.57
2019-04-13T08:44:11.355Z,24.30
2019-04-13T08:46:43.344Z,24.93
2019-04-13T08:49:15.301Z,25.77
2019-04-13T08:51:47.413Z,23.87
2019-04-13T08:54:19.419Z,25.40
2019-04-13T08:56:51.401Z,25.50
2019-04-13T08:59:24.690Z,24.17
2019-04-13T09:01:56.856Z,25.63
2019-04-13T09:04:28.897Z,25.10
2019-04-13T09:07:00.862Z,25.07
2019-04-13T09:09:35.633Z,24.07
2019-04-13T09:12:08.622Z,24.20
2019-04-13T09:14:40.691Z,25.13
2019-04-13T09:17:16.962Z,24.63
2019-04-13T09:20:12.031Z,22.97
2019-04-13T09:23:02.303Z,24.87
2019-04-13T09:25:34.429Z,25.07
2019-04-13T09:28:06.398Z,26.40
2019-04-13T09:30:39.733Z,24.70
2019-04-13T09:33:11.741Z,23.07
2019-04-13T09:35:43.786Z,23.20
2019-04-13T09:38:15.763Z,24.57
2019-04-13T09:40:47.776Z,24.30
2019-04-13T09:43:24.017Z,25.20
2019-04-13T09:45:56.061Z,23.80
2019-04-13T09:48:28.109Z,26.00
2019-04-13T09:51:00.211Z,23.70
2019-04-13T09:53:32.244Z,23.47
2019-04-13T09:56:04.540Z,23.00
2019-04-13T09:58:36.554Z,24.67
2019-04-13T10:01:08.539Z,25.13
2019-04-13T10:03:40.556Z,23.93
2019-04-13T10:06:12.558Z,24.67
2019-04-13T10:08:55.321Z,25.13
2019-04-13T10:11:22.470Z,24.10
2019-04-13T10:14:04.647Z,23.73
2019-04-13T10:16:43.231Z,24.77
2019-04-13T10:19:15.232Z,25.50
2019-04-13T10:21:49.984Z,25.17
2019-04-13T10:24:35.562Z,23.70
2019-04-13T10:27:07.708Z,24.30
2019-04-13T10:29:39.698Z,25.37
2019-04-13T10:32:11.738Z,27.80
2019-04-13T10:34:43.734Z,27.13
2019-04-13T10:37:15.822Z,26.03
2019-04-13T10:39:47.951Z,26.10
2019-04-13T10:42:19.997Z,26.47
2019-04-13T10:45:06.009Z,26.63
2019-04-13T10:47:49.660Z,27.37
2019-04-13T10:50:43.669Z,27.00
2019-04-13T10:53:15.693Z,26.73
2019-04-13T10:55:47.717Z,27.47
2019-04-13T10:58:19.800Z,25.63
2019-04-13T11:00:51.825Z,27.07
2019-04-13T11:03:23.841Z,27.13
2019-04-13T11:05:55.832Z,26.77
2019-04-13T11:08:27.870Z,25.47
2019-04-13T11:10:59.835Z,26.80
2019-04-13T11:13:31.849Z,26.77
2019-04-13T11:16:03.953Z,25.20
2019-04-13T11:18:36.951Z,26.07
2019-04-13T11:21:09.695Z,27.23
2019-04-13T11:23:45.906Z,26.43
2019-04-13T11:26:15.636Z,26.53
2019-04-13T11:28:47.616Z,25.80
2019-04-13T11:31:22.764Z,25.63
2019-04-13T11:33:53.564Z,27.10
2019-04-13T11:36:25.500Z,28.57
2019-04-13T11:38:57.521Z,28.30
2019-04-13T11:41:49.071Z,27.27
2019-04-13T11:44:52.754Z,25.50
2019-04-13T11:47:30.263Z,25.13
2019-04-13T11:50:02.448Z,26.23
2019-04-13T11:52:34.407Z,26.63
2019-04-13T11:55:06.603Z,24.60
2019-04-13T11:57:38.556Z,26.93
2019-04-13T12:00:30.445Z,26.73
2019-04-13T12:03:15.247Z,27.53
2019-04-13T12:05:47.905Z,27.03
2019-04-13T12:08:21.134Z,28.23
2019-04-13T12:11:19.111Z,27.73
2019-04-13T12:14:00.309Z,28.57
2019-04-13T12:16:49.250Z,29.27
2019-04-13T12:19:27.144Z,29.27
2019-04-13T12:22:21.587Z,28.33
2019-04-13T12:24:53.608Z,28.20
2019-04-13T12:27:25.619Z,28.00
2019-04-13T12:29:57.649Z,30.43
2019-04-13T12:32:31.081Z,30.97
2019-04-13T12:35:07.398Z,29.03
2019-04-13T12:37:37.282Z,29.90
2019-04-13T12:40:34.876Z,30.70
2019-04-13T12:43:06.977Z,30.50
2019-04-13T12:45:38.997Z,30.87
2019-04-13T12:48:10.992Z,31.00
2019-04-13T12:50:43.004Z,30.37
2019-04-13T12:53:15.084Z,29.83
2019-04-13T12:55:47.179Z,31.00
2019-04-13T12:58:22.782Z,31.67
2019-04-13T13:01:02.602Z,31.57
2019-04-13T13:03:36.645Z,28.20
2019-04-13T13:06:09.116Z,28.00
2019-04-13T13:08:41.159Z,28.40
2019-04-13T13:11:13.297Z,28.53
2019-04-13T13:13:46.741Z,29.53
2019-04-13T13:16:18.762Z,28.53
2019-04-13T13:18:50.763Z,29.50
2019-04-13T13:21:22.861Z,30.20
2019-04-13T13:23:54.889Z,28.37
2019-04-13T13:26:26.892Z,31.37
2019-04-13T13:28:58.860Z,29.37
2019-04-13T13:31:30.873Z,30.43
2019-04-13T13:34:02.854Z,31.50
2019-04-13T13:36:34.976Z,32.93
2019-04-13T13:39:06.941Z,32.67
2019-04-13T13:41:39.113Z,32.57
2019-04-13T13:46:58.238Z,33.23
2019-04-13T13:49:30.212Z,32.70
2019-04-13T13:52:05.686Z,34.20
2019-04-13T13:54:36.142Z,33.10
2019-04-13T13:57:08.185Z,34.97
2019-04-13T13:59:40.204Z,35.87
2019-04-13T14:02:21.463Z,34.70
2019-04-13T14:04:53.524Z,33.83
2019-04-13T14:07:25.525Z,33.33
2019-04-13T14:10:15.852Z,33.60
2019-04-13T14:12:47.909Z,32.63
2019-04-13T14:15:19.933Z,33.67
2019-04-13T14:17:55.212Z,34.83
2019-04-13T14:20:27.476Z,33.57
2019-04-13T14:22:59.709Z,33.63
2019-04-13T14:25:31.740Z,33.00
2019-04-13T14:28:03.738Z,33.07
2019-04-13T14:30:35.782Z,35.63
2019-04-13T14:33:07.797Z,35.57
2019-04-13T14:35:39.919Z,35.27
2019-04-13T14:38:13.982Z,34.60
2019-04-13T14:40:55.335Z,37.03
2019-04-13T14:43:36.161Z,37.17
2019-04-13T14:46:09.298Z,37.90
2019-04-13T14:48:41.370Z,35.10
2019-04-13T14:51:13.578Z,35.17
2019-04-13T14:53:46.394Z,35.80
2019-04-13T14:56:19.160Z,36.53
2019-04-13T14:58:51.216Z,36.37
2019-04-13T15:01:23.271Z,39.00
2019-04-13T15:03:55.261Z,37.40
2019-04-13T15:06:27.288Z,38.70
2019-04-13T15:08:59.309Z,37.90
2019-04-13T15:11:31.317Z,40.37
2019-04-13T15:14:04.257Z,38.20
2019-04-13T15:16:36.319Z,38.43
2019-04-13T15:19:26.301Z,39.33
2019-04-13T15:21:50.183Z,38.97
2019-04-13T15:24:23.248Z,37.00
2019-04-13T15:26:56.305Z,38.43
2019-04-13T15:29:31.508Z,37.27
2019-04-13T15:32:02.334Z,37.00
2019-04-13T15:34:36.429Z,38.50
2019-04-13T15:37:09.857Z,38.43
2019-04-13T15:39:45.559Z,38.60
2019-04-13T15:42:21.911Z,39.10
2019-04-13T15:44:52.795Z,38.60
2019-04-13T15:47:27.145Z,39.07
2019-04-13T15:49:58.899Z,39.63
2019-04-13T15:52:31.159Z,41.17
2019-04-13T15:55:04.384Z,40.63
2019-04-13T15:57:37.260Z,38.27
2019-04-13T16:00:09.404Z,40.47
2019-04-13T16:02:42.715Z,39.03
2019-04-13T16:05:14.888Z,41.53
2019-04-13T16:07:46.899Z,40.83
2019-04-13T16:10:44.358Z,37.73
2019-04-13T16:13:21.544Z,39.53
2019-04-13T16:16:01.095Z,40.60
2019-04-13T16:18:33.174Z,37.23
2019-04-13T16:21:06.347Z,37.67
2019-04-13T16:23:39.015Z,40.30
2019-04-13T16:26:11.037Z,40.43
2019-04-13T16:29:10.056Z,38.67
2019-04-13T16:31:55.530Z,42.70
2019-04-13T16:34:46.640Z,40.67
2019-04-13T16:37:23.370Z,39.40
2019-04-13T16:39:55.860Z,40.00
2019-04-13T16:42:31.227Z,40.93
2019-04-13T16:45:34.123Z,41.13
2019-04-13T16:48:25.309Z,40.70
2019-04-13T16:51:16.209Z,43.40
2019-04-13T16:54:06.198Z,41.47
2019-04-13T16:56:45.856Z,40.57
2019-04-13T16:59:40.709Z,41.00
2019-04-13T17:02:35.971Z,41.60
2019-04-13T17:05:11.397Z,42.60
2019-04-13T17:07:44.715Z,42.17
2019-04-13T17:10:17.136Z,41.30
2019-04-13T17:12:49.394Z,41.17
2019-04-13T17:15:21.496Z,41.47
2019-04-13T17:17:53.699Z,41.93
2019-04-13T17:20:45.603Z,40.93
2019-04-13T17:23:46.342Z,40.37
2019-04-13T17:26:33.538Z,39.20
2019-04-13T17:29:18.734Z,44.23
2019-04-13T17:31:59.919Z,43.33
2019-04-13T17:34:36.302Z,41.07
2019-04-13T17:37:09.338Z,44.20
2019-04-13T17:39:41.419Z,44.60
2019-04-13T17:42:40.675Z,42.10
2019-04-13T17:45:28.208Z,41.07
2019-04-13T17:48:13.140Z,42.60
2019-04-13T17:51:03.907Z,42.63
2019-04-13T17:53:45.227Z,43.23
2019-04-13T17:56:19.818Z,42.03
2019-04-13T17:59:03.267Z,42.50
2019-04-13T18:01:53.809Z,42.37
2019-04-13T18:04:45.746Z,40.40
2019-04-13T18:07:37.420Z,38.87
2019-04-13T18:10:21.001Z,41.30
2019-04-13T18:13:11.986Z,44.17
2019-04-13T18:16:04.291Z,41.63
2019-04-13T18:18:39.668Z,39.67
2019-04-13T18:21:11.624Z,42.20
2019-04-13T18:23:44.026Z,68.67
2019-04-13T18:26:16.356Z,57.73
2019-04-13T18:28:48.432Z,50.10
2019-04-13T18:31:20.638Z,44.83
2019-04-13T18:33:53.398Z,46.03
2019-04-13T18:36:25.725Z,43.43
2019-04-13T18:38:58.323Z,39.63
2019-04-13T18:41:30.916Z,39.43
2019-04-13T18:44:03.382Z,43.87
2019-04-13T18:46:36.269Z,41.93
2019-04-13T18:49:09.525Z,44.17
2019-04-13T18:51:42.050Z,42.17
2019-04-13T18:54:14.145Z,40.80
2019-04-13T18:56:46.180Z,40.37
2019-04-13T18:59:19.370Z,42.07
2019-04-13T19:01:51.671Z,40.63
2019-04-13T19:04:23.704Z,39.80
2019-04-13T19:06:55.711Z,37.10
2019-04-13T19:09:27.782Z,39.20
2019-04-13T19:11:59.814Z,36.80
2019-04-13T19:14:31.860Z,45.17
2019-04-13T19:17:03.980Z,46.20
2019-04-13T19:19:36.020Z,57.60
2019-04-13T19:22:08.089Z,58.50
2019-04-13T19:24:40.172Z,51.30
2019-04-13T19:27:12.215Z,43.17
2019-04-13T19:29:44.306Z,41.27
2019-04-13T19:32:16.384Z,40.53
2019-04-13T19:34:48.484Z,40.90
2019-04-13T19:37:20.498Z,41.87
2019-04-13T19:39:52.574Z,40.43
2019-04-13T19:42:24.608Z,39.80
2019-04-13T19:44:56.696Z,40.07
2019-04-13T19:47:28.693Z,42.33
2019-04-13T19:50:00.853Z,40.60
2019-04-13T19:52:58.635Z,39.50
2019-04-13T19:55:30.697Z,40.23
2019-04-13T19:58:02.680Z,38.27
2019-04-13T20:00:38.805Z,41.63
2019-04-13T20:03:10.784Z,38.33
2019-04-13T20:05:42.823Z,39.33
2019-04-13T20:08:14.865Z,39.37
2019-04-13T20:10:46.996Z,37.90
2019-04-13T20:13:30.763Z,38.47
2019-04-13T20:15:53.136Z,35.37
2019-04-13T20:18:26.204Z,36.30
2019-04-13T20:20:58.303Z,36.67
2019-04-13T20:23:30.277Z,36.40
2019-04-13T20:26:03.342Z,35.70
2019-04-13T20:28:35.470Z,37.07
2019-04-13T20:31:07.485Z,36.07
2019-04-13T20:33:39.503Z,36.97
2019-04-13T20:36:16.396Z,36.90
2019-04-13T20:38:45.578Z,38.50
2019-04-13T20:41:21.537Z,36.47
2019-04-13T20:44:02.299Z,39.23
2019-04-13T20:46:27.815Z,38.40
2019-04-13T20:48:59.910Z,35.93
2019-04-13T20:51:32.169Z,35.13
2019-04-13T20:54:04.216Z,38.83
2019-04-13T20:56:36.258Z,39.37
2019-04-13T20:59:08.563Z,45.97
2019-04-13T21:01:40.907Z,46.13
2019-04-13T21:04:13.024Z,35.97
2019-04-13T21:06:45.724Z,43.97
2019-04-13T21:09:18.354Z,35.00
2019-04-13T21:11:50.556Z,35.20
2019-04-13T21:14:29.080Z,35.70
2019-04-13T21:16:56.463Z,35.57
2019-04-13T21:19:28.663Z,37.73
2019-04-13T21:22:00.797Z,36.30
2019-04-13T21:24:33.082Z,35.77
2019-04-13T21:27:05.326Z,37.37
2019-04-13T21:29:37.426Z,36.60
2019-04-13T21:32:09.558Z,38.03
2019-04-13T21:34:42.942Z,36.33
2019-04-13T21:37:15.979Z,38.03
2019-04-13T21:39:48.382Z,36.70
2019-04-13T21:42:20.412Z,37.27
2019-04-13T21:44:53.040Z,37.17
2019-04-13T21:47:25.173Z,40.03
2019-04-13T21:50:04.354Z,38.70
2019-04-13T21:52:50.080Z,37.00
2019-04-13T21:55:36.048Z,35.27
2019-04-13T21:58:08.045Z,37.53
2019-04-13T22:01:08.601Z,34.97
2019-04-13T22:03:40.713Z,36.43
2019-04-13T22:06:12.710Z,35.67
2019-04-13T22:08:44.944Z,38.07
2019-04-13T22:11:17.062Z,36.23
2019-04-13T22:13:49.086Z,36.13
2019-04-13T22:16:21.236Z,35.30
2019-04-13T22:18:53.909Z,37.50
2019-04-13T22:21:26.247Z,35.17
2019-04-13T22:23:58.594Z,37.13
2019-04-13T22:26:30.680Z,36.50
2019-04-13T22:29:07.558Z,35.77
2019-04-13T22:32:14.547Z,35.10
2019-04-13T22:35:06.555Z,33.60
2019-04-13T22:37:38.625Z,28.50
2019-04-13T22:40:10.847Z,35.57
2019-04-13T22:42:42.914Z,36.50
2019-04-13T22:45:16.482Z,36.43
2019-04-13T22:47:54.144Z,38.03
2019-04-13T22:50:55.074Z,38.50
2019-04-13T22:53:44.017Z,36.33
2019-04-13T22:56:22.903Z,35.87
2019-04-13T22:58:55.786Z,37.73
2019-04-13T23:01:29.736Z,37.33
2019-04-13T23:04:01.743Z,33.90
2019-04-13T23:06:33.730Z,34.23
2019-04-13T23:09:06.477Z,36.53
2019-04-13T23:11:38.935Z,36.87
2019-04-13T23:14:11.179Z,48.20
2019-04-13T23:16:43.426Z,47.33
2019-04-13T23:19:15.504Z,40.97
2019-04-13T23:21:48.416Z,40.33
2019-04-13T23:24:21.314Z,38.07
2019-04-13T23:26:53.744Z,39.77
2019-04-13T23:29:25.883Z,35.67
2019-04-13T23:31:58.695Z,38.97
2019-04-13T23:34:31.156Z,37.77
2019-04-13T23:37:04.039Z,38.20
2019-04-13T23:39:36.664Z,35.70
2019-04-13T23:42:09.153Z,37.70
2019-04-13T23:44:42.057Z,37.03
2019-04-13T23:47:14.399Z,39.00
2019-04-13T23:49:47.142Z,37.33
2019-04-13T23:52:19.668Z,39.40
2019-04-13T23:54:52.352Z,37.80
2019-04-13T23:57:31.453Z,39.13
